sensor_id;sensor_type;location;lat;lon;timestamp;P1;durP1;ratioP1;P2;durP2;ratioP2
18820;SDS011;9539;59.332;18.034;2022-07-12T00:01:01;4.03;;;2.03;;
18820;SDS011;9539;59.332;18.034;2022-07-12T00:03:29;3.65;;;2.65;;
18820;SDS011;9539;59.332;18.034;2022-07-12T00:05:56;2.78;;;2.22;;
18820;SDS011;9539;59.332;18.034;2022-07-12T00:08:26;4.15;;;2.20;;
18820;SDS011;9539;59.332;18.034;2022-07-12T00:10:55;6.63;;;2.33;;
18820;SDS011;9539;59.332;18.034;2022-07-12T00:13:23;2.67;;;2.10;;
18820;SDS011;9539;59.332;18.034;2022-07-12T00:15:50;4.55;;;2.42;;
18820;SDS011;9539;59.332;18.034;2022-07-12T00:18:16;3.45;;;2.25;;
18820;SDS011;9539;59.332;18.034;2022-07-12T00:20:47;5.32;;;2.53;;
18820;SDS011;9539;59.332;18.034;2022-07-12T00:23:17;5.32;;;2.53;;
18820;SDS011;9539;59.332;18.034;2022-07-12T00:25:47;8.63;;;2.95;;
18820;SDS011;9539;59.332;18.034;2022-07-12T00:28:13;5.30;;;2.28;;
18820;SDS011;9539;59.332;18.034;2022-07-12T00:30:40;3.15;;;2.40;;
18820;SDS011;9539;59.332;18.034;2022-07-12T00:33:07;2.03;;;1.90;;
18820;SDS011;9539;59.332;18.034;2022-07-12T00:35:37;3.33;;;2.20;;
18820;SDS011;9539;59.332;18.034;2022-07-12T00:38:07;3.47;;;2.13;;
18820;SDS011;9539;59.332;18.034;2022-07-12T00:40:34;3.90;;;2.28;;
18820;SDS011;9539;59.332;18.034;2022-07-12T00:43:03;6.03;;;2.38;;
18820;SDS011;9539;59.332;18.034;2022-07-12T00:45:30;2.25;;;1.98;;
18820;SDS011;9539;59.332;18.034;2022-07-12T00:47:56;3.97;;;2.38;;
18820;SDS011;9539;59.332;18.034;2022-07-12T00:50:24;2.88;;;2.17;;
18820;SDS011;9539;59.332;18.034;2022-07-12T00:52:54;2.30;;;2.10;;
18820;SDS011;9539;59.332;18.034;2022-07-12T00:55:25;3.30;;;2.13;;
18820;SDS011;9539;59.332;18.034;2022-07-12T00:57:52;2.85;;;2.00;;
18820;SDS011;9539;59.332;18.034;2022-07-12T01:00:19;3.13;;;2.08;;
18820;SDS011;9539;59.332;18.034;2022-07-12T01:02:48;3.63;;;2.10;;
18820;SDS011;9539;59.332;18.034;2022-07-12T01:05:15;2.03;;;1.92;;
18820;SDS011;9539;59.332;18.034;2022-07-12T01:07:44;3.38;;;1.98;;
18820;SDS011;9539;59.332;18.034;2022-07-12T01:10:11;4.07;;;1.90;;
18820;SDS011;9539;59.332;18.034;2022-07-12T01:12:39;3.88;;;2.08;;
18820;SDS011;9539;59.332;18.034;2022-07-12T01:15:09;5.28;;;2.10;;
18820;SDS011;9539;59.332;18.034;2022-07-12T01:17:39;3.53;;;2.08;;
18820;SDS011;9539;59.332;18.034;2022-07-12T01:20:06;2.38;;;1.80;;
18820;SDS011;9539;59.332;18.034;2022-07-12T01:22:34;1.73;;;1.63;;
18820;SDS011;9539;59.332;18.034;2022-07-12T01:25:07;2.45;;;1.85;;
18820;SDS011;9539;59.332;18.034;2022-07-12T01:27:37;3.42;;;1.80;;
18820;SDS011;9539;59.332;18.034;2022-07-12T01:30:05;1.98;;;1.60;;
18820;SDS011;9539;59.332;18.034;2022-07-12T01:32:32;3.13;;;1.58;;
18820;SDS011;9539;59.332;18.034;2022-07-12T01:35:00;4.00;;;1.77;;
18820;SDS011;9539;59.332;18.034;2022-07-12T01:37:33;1.77;;;1.50;;
18820;SDS011;9539;59.332;18.034;2022-07-12T01:40:01;3.28;;;1.48;;
18820;SDS011;9539;59.332;18.034;2022-07-12T01:42:30;3.63;;;1.60;;
18820;SDS011;9539;59.332;18.034;2022-07-12T01:44:57;1.80;;;1.40;;
18820;SDS011;9539;59.332;18.034;2022-07-12T01:47:25;3.75;;;1.50;;
18820;SDS011;9539;59.332;18.034;2022-07-12T01:49:54;1.67;;;1.25;;
18820;SDS011;9539;59.332;18.034;2022-07-12T01:52:21;1.58;;;1.38;;
18820;SDS011;9539;59.332;18.034;2022-07-12T01:54:49;1.40;;;1.30;;
18820;SDS011;9539;59.332;18.034;2022-07-12T01:57:17;1.30;;;1.20;;
18820;SDS011;9539;59.332;18.034;2022-07-12T01:59:46;1.30;;;1.20;;
18820;SDS011;9539;59.332;18.034;2022-07-12T02:02:14;1.45;;;1.20;;
18820;SDS011;9539;59.332;18.034;2022-07-12T02:04:44;2.20;;;1.25;;
18820;SDS011;9539;59.332;18.034;2022-07-12T02:07:11;2.47;;;1.30;;
18820;SDS011;9539;59.332;18.034;2022-07-12T02:09:38;3.17;;;1.30;;
18820;SDS011;9539;59.332;18.034;2022-07-12T02:12:04;3.90;;;1.20;;
18820;SDS011;9539;59.332;18.034;2022-07-12T02:14:31;1.23;;;1.13;;
18820;SDS011;9539;59.332;18.034;2022-07-12T02:16:59;1.38;;;1.27;;
18820;SDS011;9539;59.332;18.034;2022-07-12T02:19:26;1.20;;;1.10;;
18820;SDS011;9539;59.332;18.034;2022-07-12T02:21:53;2.03;;;1.30;;
18820;SDS011;9539;59.332;18.034;2022-07-12T02:24:19;1.50;;;1.20;;
18820;SDS011;9539;59.332;18.034;2022-07-12T02:26:46;3.03;;;1.30;;
18820;SDS011;9539;59.332;18.034;2022-07-12T02:29:13;1.95;;;1.30;;
18820;SDS011;9539;59.332;18.034;2022-07-12T02:31:43;1.00;;;1.00;;
18820;SDS011;9539;59.332;18.034;2022-07-12T02:34:14;1.40;;;1.30;;
18820;SDS011;9539;59.332;18.034;2022-07-12T02:36:43;2.35;;;1.20;;
18820;SDS011;9539;59.332;18.034;2022-07-12T02:39:10;1.33;;;1.20;;
18820;SDS011;9539;59.332;18.034;2022-07-12T02:41:36;1.40;;;1.30;;
18820;SDS011;9539;59.332;18.034;2022-07-12T02:44:03;1.15;;;1.10;;
18820;SDS011;9539;59.332;18.034;2022-07-12T02:46:30;1.40;;;1.30;;
18820;SDS011;9539;59.332;18.034;2022-07-12T02:48:57;2.85;;;1.15;;
18820;SDS011;9539;59.332;18.034;2022-07-12T02:51:25;2.65;;;1.25;;
18820;SDS011;9539;59.332;18.034;2022-07-12T02:53:52;1.20;;;1.10;;
18820;SDS011;9539;59.332;18.034;2022-07-12T02:56:18;3.38;;;1.20;;
18820;SDS011;9539;59.332;18.034;2022-07-12T02:58:48;1.23;;;1.13;;
18820;SDS011;9539;59.332;18.034;2022-07-12T03:01:15;1.20;;;1.20;;
18820;SDS011;9539;59.332;18.034;2022-07-12T03:03:41;1.00;;;1.00;;
18820;SDS011;9539;59.332;18.034;2022-07-12T03:06:08;1.40;;;1.10;;
18820;SDS011;9539;59.332;18.034;2022-07-12T03:08:36;1.30;;;1.20;;
18820;SDS011;9539;59.332;18.034;2022-07-12T03:11:03;1.63;;;1.10;;
18820;SDS011;9539;59.332;18.034;2022-07-12T03:13:29;1.38;;;1.13;;
18820;SDS011;9539;59.332;18.034;2022-07-12T03:15:56;2.58;;;1.30;;
18820;SDS011;9539;59.332;18.034;2022-07-12T03:18:23;2.10;;;1.20;;
18820;SDS011;9539;59.332;18.034;2022-07-12T03:20:49;2.03;;;1.20;;
18820;SDS011;9539;59.332;18.034;2022-07-12T03:23:16;1.13;;;1.10;;
18820;SDS011;9539;59.332;18.034;2022-07-12T03:25:44;1.65;;;1.23;;
18820;SDS011;9539;59.332;18.034;2022-07-12T03:28:11;4.07;;;1.15;;
18820;SDS011;9539;59.332;18.034;2022-07-12T03:30:38;1.20;;;1.10;;
18820;SDS011;9539;59.332;18.034;2022-07-12T03:33:06;1.80;;;1.08;;
18820;SDS011;9539;59.332;18.034;2022-07-12T03:35:33;2.78;;;1.10;;
18820;SDS011;9539;59.332;18.034;2022-07-12T03:38:00;1.30;;;1.20;;
18820;SDS011;9539;59.332;18.034;2022-07-12T03:40:31;1.70;;;1.02;;
18820;SDS011;9539;59.332;18.034;2022-07-12T03:43:00;2.00;;;1.10;;
18820;SDS011;9539;59.332;18.034;2022-07-12T03:45:27;1.27;;;1.17;;
18820;SDS011;9539;59.332;18.034;2022-07-12T03:47:54;2.10;;;1.20;;
18820;SDS011;9539;59.332;18.034;2022-07-12T03:50:20;0.90;;;0.90;;
18820;SDS011;9539;59.332;18.034;2022-07-12T03:52:49;2.72;;;1.08;;
18820;SDS011;9539;59.332;18.034;2022-07-12T03:55:16;2.65;;;1.10;;
18820;SDS011;9539;59.332;18.034;2022-07-12T03:57:42;3.00;;;1.20;;
18820;SDS011;9539;59.332;18.034;2022-07-12T04:00:15;2.13;;;1.10;;
18820;SDS011;9539;59.332;18.034;2022-07-12T04:02:42;4.30;;;1.15;;
18820;SDS011;9539;59.332;18.034;2022-07-12T04:05:12;2.58;;;1.10;;
18820;SDS011;9539;59.332;18.034;2022-07-12T04:07:39;1.25;;;1.15;;
18820;SDS011;9539;59.332;18.034;2022-07-12T04:10:08;1.15;;;1.10;;
18820;SDS011;9539;59.332;18.034;2022-07-12T04:12:35;2.05;;;1.15;;
18820;SDS011;9539;59.332;18.034;2022-07-12T04:15:03;1.20;;;1.10;;
18820;SDS011;9539;59.332;18.034;2022-07-12T04:17:34;1.17;;;1.08;;
18820;SDS011;9539;59.332;18.034;2022-07-12T04:20:01;2.65;;;1.10;;
18820;SDS011;9539;59.332;18.034;2022-07-12T04:22:27;2.47;;;1.40;;
18820;SDS011;9539;59.332;18.034;2022-07-12T04:24:54;1.40;;;1.30;;
18820;SDS011;9539;59.332;18.034;2022-07-12T04:27:21;1.45;;;1.15;;
18820;SDS011;9539;59.332;18.034;2022-07-12T04:29:48;1.30;;;1.20;;
18820;SDS011;9539;59.332;18.034;2022-07-12T04:32:15;2.92;;;1.33;;
18820;SDS011;9539;59.332;18.034;2022-07-12T04:34:43;1.70;;;1.30;;
18820;SDS011;9539;59.332;18.034;2022-07-12T04:37:09;1.83;;;1.30;;
18820;SDS011;9539;59.332;18.034;2022-07-12T04:39:36;4.13;;;1.48;;
18820;SDS011;9539;59.332;18.034;2022-07-12T04:42:03;1.65;;;1.48;;
18820;SDS011;9539;59.332;18.034;2022-07-12T04:44:30;2.40;;;1.27;;
18820;SDS011;9539;59.332;18.034;2022-07-12T04:46:57;2.60;;;1.10;;
18820;SDS011;9539;59.332;18.034;2022-07-12T04:49:24;1.42;;;1.10;;
18820;SDS011;9539;59.332;18.034;2022-07-12T04:51:55;1.20;;;1.10;;
18820;SDS011;9539;59.332;18.034;2022-07-12T04:54:21;1.92;;;1.30;;
18820;SDS011;9539;59.332;18.034;2022-07-12T04:56:48;2.95;;;1.33;;
18820;SDS011;9539;59.332;18.034;2022-07-12T04:59:14;3.88;;;1.40;;
18820;SDS011;9539;59.332;18.034;2022-07-12T05:01:41;2.47;;;1.20;;
18820;SDS011;9539;59.332;18.034;2022-07-12T05:04:10;2.08;;;1.23;;
18820;SDS011;9539;59.332;18.034;2022-07-12T05:06:37;2.30;;;1.40;;
18820;SDS011;9539;59.332;18.034;2022-07-12T05:09:08;2.13;;;1.40;;
18820;SDS011;9539;59.332;18.034;2022-07-12T05:11:37;1.77;;;1.30;;
18820;SDS011;9539;59.332;18.034;2022-07-12T05:14:03;3.05;;;1.48;;
18820;SDS011;9539;59.332;18.034;2022-07-12T05:16:33;3.05;;;1.45;;
18820;SDS011;9539;59.332;18.034;2022-07-12T05:19:01;3.83;;;1.65;;
18820;SDS011;9539;59.332;18.034;2022-07-12T05:21:28;2.17;;;1.70;;
18820;SDS011;9539;59.332;18.034;2022-07-12T05:24:03;2.08;;;1.70;;
18820;SDS011;9539;59.332;18.034;2022-07-12T05:26:35;6.10;;;1.80;;
18820;SDS011;9539;59.332;18.034;2022-07-12T05:29:02;1.80;;;1.35;;
18820;SDS011;9539;59.332;18.034;2022-07-12T05:31:29;2.05;;;1.30;;
18820;SDS011;9539;59.332;18.034;2022-07-12T05:33:55;2.60;;;1.50;;
18820;SDS011;9539;59.332;18.034;2022-07-12T05:36:25;2.47;;;1.30;;
18820;SDS011;9539;59.332;18.034;2022-07-12T05:38:52;4.00;;;1.20;;
18820;SDS011;9539;59.332;18.034;2022-07-12T05:41:19;2.75;;;1.40;;
18820;SDS011;9539;59.332;18.034;2022-07-12T05:43:47;4.68;;;1.40;;
18820;SDS011;9539;59.332;18.034;2022-07-12T05:46:14;5.43;;;1.58;;
18820;SDS011;9539;59.332;18.034;2022-07-12T05:48:40;2.92;;;1.50;;
18820;SDS011;9539;59.332;18.034;2022-07-12T05:51:07;3.22;;;1.20;;
18820;SDS011;9539;59.332;18.034;2022-07-12T05:53:51;2.42;;;1.30;;
18820;SDS011;9539;59.332;18.034;2022-07-12T05:56:18;3.92;;;1.60;;
18820;SDS011;9539;59.332;18.034;2022-07-12T05:58:46;1.50;;;1.40;;
18820;SDS011;9539;59.332;18.034;2022-07-12T06:01:13;2.95;;;1.30;;
18820;SDS011;9539;59.332;18.034;2022-07-12T06:03:43;1.60;;;1.15;;
18820;SDS011;9539;59.332;18.034;2022-07-12T06:06:12;1.58;;;1.33;;
18820;SDS011;9539;59.332;18.034;2022-07-12T06:08:39;2.45;;;1.40;;
18820;SDS011;9539;59.332;18.034;2022-07-12T06:11:06;5.43;;;1.30;;
18820;SDS011;9539;59.332;18.034;2022-07-12T06:13:33;2.05;;;1.77;;
18820;SDS011;9539;59.332;18.034;2022-07-12T06:16:03;3.97;;;1.20;;
18820;SDS011;9539;59.332;18.034;2022-07-12T06:18:31;2.90;;;1.38;;
18820;SDS011;9539;59.332;18.034;2022-07-12T06:21:00;1.92;;;1.50;;
18820;SDS011;9539;59.332;18.034;2022-07-12T06:23:26;2.28;;;1.30;;
18820;SDS011;9539;59.332;18.034;2022-07-12T06:25:53;2.28;;;1.20;;
18820;SDS011;9539;59.332;18.034;2022-07-12T06:28:20;3.33;;;1.40;;
18820;SDS011;9539;59.332;18.034;2022-07-12T06:30:47;2.13;;;1.40;;
18820;SDS011;9539;59.332;18.034;2022-07-12T06:33:15;3.08;;;1.33;;
18820;SDS011;9539;59.332;18.034;2022-07-12T06:35:44;1.98;;;1.35;;
18820;SDS011;9539;59.332;18.034;2022-07-12T06:38:10;1.77;;;1.52;;
18820;SDS011;9539;59.332;18.034;2022-07-12T06:40:37;4.80;;;2.00;;
18820;SDS011;9539;59.332;18.034;2022-07-12T06:43:08;1.83;;;1.30;;
18820;SDS011;9539;59.332;18.034;2022-07-12T06:45:35;1.95;;;1.30;;
18820;SDS011;9539;59.332;18.034;2022-07-12T06:48:05;4.38;;;1.50;;
18820;SDS011;9539;59.332;18.034;2022-07-12T06:50:38;2.97;;;1.38;;
18820;SDS011;9539;59.332;18.034;2022-07-12T06:53:05;1.58;;;1.25;;
18820;SDS011;9539;59.332;18.034;2022-07-12T06:55:34;2.42;;;1.10;;
18820;SDS011;9539;59.332;18.034;2022-07-12T06:58:01;1.77;;;1.35;;
18820;SDS011;9539;59.332;18.034;2022-07-12T07:00:30;3.05;;;1.20;;
18820;SDS011;9539;59.332;18.034;2022-07-12T07:03:00;1.48;;;1.35;;
18820;SDS011;9539;59.332;18.034;2022-07-12T07:05:26;1.95;;;1.30;;
18820;SDS011;9539;59.332;18.034;2022-07-12T07:08:00;1.55;;;1.17;;
18820;SDS011;9539;59.332;18.034;2022-07-12T07:10:27;4.22;;;1.35;;
18820;SDS011;9539;59.332;18.034;2022-07-12T07:12:56;2.42;;;1.40;;
18820;SDS011;9539;59.332;18.034;2022-07-12T07:15:22;3.33;;;1.42;;
18820;SDS011;9539;59.332;18.034;2022-07-12T07:17:52;3.10;;;1.20;;
18820;SDS011;9539;59.332;18.034;2022-07-12T07:20:21;1.73;;;1.13;;
18820;SDS011;9539;59.332;18.034;2022-07-12T07:22:48;8.27;;;1.30;;
18820;SDS011;9539;59.332;18.034;2022-07-12T07:25:18;2.10;;;1.30;;
18820;SDS011;9539;59.332;18.034;2022-07-12T07:27:45;1.30;;;1.20;;
18820;SDS011;9539;59.332;18.034;2022-07-12T07:30:12;1.42;;;1.20;;
18820;SDS011;9539;59.332;18.034;2022-07-12T07:32:56;1.65;;;1.20;;
18820;SDS011;9539;59.332;18.034;2022-07-12T07:35:25;2.45;;;1.15;;
18820;SDS011;9539;59.332;18.034;2022-07-12T07:37:52;3.75;;;1.50;;
18820;SDS011;9539;59.332;18.034;2022-07-12T07:40:25;1.48;;;1.00;;
18820;SDS011;9539;59.332;18.034;2022-07-12T07:42:52;2.28;;;1.40;;
18820;SDS011;9539;59.332;18.034;2022-07-12T07:45:18;2.35;;;1.25;;
18820;SDS011;9539;59.332;18.034;2022-07-12T07:47:45;4.15;;;1.30;;
18820;SDS011;9539;59.332;18.034;2022-07-12T07:50:16;1.65;;;1.30;;
18820;SDS011;9539;59.332;18.034;2022-07-12T07:52:46;1.33;;;1.10;;
18820;SDS011;9539;59.332;18.034;2022-07-12T07:55:18;1.95;;;1.10;;
18820;SDS011;9539;59.332;18.034;2022-07-12T07:57:49;1.25;;;1.00;;
18820;SDS011;9539;59.332;18.034;2022-07-12T08:00:19;2.17;;;1.20;;
18820;SDS011;9539;59.332;18.034;2022-07-12T08:02:48;2.28;;;1.33;;
18820;SDS011;9539;59.332;18.034;2022-07-12T08:05:15;2.35;;;1.40;;
18820;SDS011;9539;59.332;18.034;2022-07-12T08:07:44;1.40;;;1.20;;
18820;SDS011;9539;59.332;18.034;2022-07-12T08:10:11;2.88;;;1.25;;
18820;SDS011;9539;59.332;18.034;2022-07-12T08:12:37;1.73;;;1.30;;
18820;SDS011;9539;59.332;18.034;2022-07-12T08:15:06;1.40;;;1.10;;
18820;SDS011;9539;59.332;18.034;2022-07-12T08:17:33;1.52;;;1.15;;
18820;SDS011;9539;59.332;18.034;2022-07-12T08:20:02;2.03;;;1.60;;
18820;SDS011;9539;59.332;18.034;2022-07-12T08:22:29;2.85;;;2.08;;
18820;SDS011;9539;59.332;18.034;2022-07-12T08:24:55;2.65;;;1.50;;
18820;SDS011;9539;59.332;18.034;2022-07-12T08:27:22;1.50;;;1.00;;
18820;SDS011;9539;59.332;18.034;2022-07-12T08:29:49;2.95;;;1.30;;
18820;SDS011;9539;59.332;18.034;2022-07-12T08:32:21;2.17;;;1.00;;
18820;SDS011;9539;59.332;18.034;2022-07-12T08:34:48;1.30;;;1.20;;
18820;SDS011;9539;59.332;18.034;2022-07-12T08:37:14;3.17;;;1.48;;
18820;SDS011;9539;59.332;18.034;2022-07-12T08:39:41;1.23;;;1.10;;
18820;SDS011;9539;59.332;18.034;2022-07-12T08:42:07;2.03;;;1.10;;
18820;SDS011;9539;59.332;18.034;2022-07-12T08:44:34;4.93;;;1.10;;
18820;SDS011;9539;59.332;18.034;2022-07-12T08:47:05;0.90;;;0.90;;
18820;SDS011;9539;59.332;18.034;2022-07-12T08:49:39;1.58;;;1.35;;
18820;SDS011;9539;59.332;18.034;2022-07-12T08:54:55;2.55;;;1.70;;
18820;SDS011;9539;59.332;18.034;2022-07-12T08:57:28;2.28;;;1.20;;
18820;SDS011;9539;59.332;18.034;2022-07-12T08:59:58;1.50;;;1.20;;
18820;SDS011;9539;59.332;18.034;2022-07-12T09:02:25;5.55;;;5.05;;
18820;SDS011;9539;59.332;18.034;2022-07-12T09:05:02;3.15;;;1.30;;
18820;SDS011;9539;59.332;18.034;2022-07-12T09:07:35;3.63;;;1.20;;
18820;SDS011;9539;59.332;18.034;2022-07-12T09:10:04;3.58;;;1.27;;
18820;SDS011;9539;59.332;18.034;2022-07-12T09:12:36;1.25;;;1.10;;
18820;SDS011;9539;59.332;18.034;2022-07-12T09:15:12;1.35;;;1.13;;
18820;SDS011;9539;59.332;18.034;2022-07-12T09:17:40;4.35;;;1.48;;
18820;SDS011;9539;59.332;18.034;2022-07-12T09:20:14;1.83;;;1.40;;
18820;SDS011;9539;59.332;18.034;2022-07-12T09:22:47;2.85;;;1.10;;
18820;SDS011;9539;59.332;18.034;2022-07-12T09:25:18;4.15;;;1.10;;
18820;SDS011;9539;59.332;18.034;2022-07-12T09:27:50;7.28;;;1.50;;
18820;SDS011;9539;59.332;18.034;2022-07-12T09:30:18;0.93;;;0.93;;
18820;SDS011;9539;59.332;18.034;2022-07-12T09:32:49;0.95;;;0.90;;
18820;SDS011;9539;59.332;18.034;2022-07-12T09:35:38;2.38;;;1.10;;
18820;SDS011;9539;59.332;18.034;2022-07-12T09:38:23;1.13;;;1.05;;
18820;SDS011;9539;59.332;18.034;2022-07-12T09:40:50;1.30;;;1.17;;
18820;SDS011;9539;59.332;18.034;2022-07-12T09:43:21;3.05;;;1.30;;
18820;SDS011;9539;59.332;18.034;2022-07-12T09:45:48;1.35;;;1.10;;
18820;SDS011;9539;59.332;18.034;2022-07-12T09:48:15;5.15;;;1.00;;
18820;SDS011;9539;59.332;18.034;2022-07-12T09:50:46;2.63;;;1.20;;
18820;SDS011;9539;59.332;18.034;2022-07-12T09:53:19;3.67;;;1.70;;
18820;SDS011;9539;59.332;18.034;2022-07-12T09:55:52;2.28;;;1.60;;
18820;SDS011;9539;59.332;18.034;2022-07-12T09:58:22;1.15;;;1.05;;
18820;SDS011;9539;59.332;18.034;2022-07-12T10:00:54;1.10;;;1.00;;
18820;SDS011;9539;59.332;18.034;2022-07-12T10:03:25;1.75;;;1.08;;
18820;SDS011;9539;59.332;18.034;2022-07-12T10:05:58;4.18;;;1.58;;
18820;SDS011;9539;59.332;18.034;2022-07-12T10:08:28;1.63;;;0.90;;
18820;SDS011;9539;59.332;18.034;2022-07-12T10:10:55;2.88;;;1.00;;
18820;SDS011;9539;59.332;18.034;2022-07-12T10:13:23;1.35;;;1.00;;
18820;SDS011;9539;59.332;18.034;2022-07-12T10:15:57;2.67;;;1.02;;
18820;SDS011;9539;59.332;18.034;2022-07-12T10:18:26;3.25;;;1.00;;
18820;SDS011;9539;59.332;18.034;2022-07-12T10:20:53;1.67;;;1.00;;
18820;SDS011;9539;59.332;18.034;2022-07-12T10:23:30;1.83;;;1.10;;
18820;SDS011;9539;59.332;18.034;2022-07-12T10:26:25;1.58;;;0.90;;
18820;SDS011;9539;59.332;18.034;2022-07-12T10:29:05;1.10;;;1.00;;
18820;SDS011;9539;59.332;18.034;2022-07-12T10:31:34;2.60;;;0.90;;
18820;SDS011;9539;59.332;18.034;2022-07-12T10:34:10;2.15;;;1.00;;
18820;SDS011;9539;59.332;18.034;2022-07-12T10:39:38;0.88;;;0.88;;
18820;SDS011;9539;59.332;18.034;2022-07-12T10:42:14;1.30;;;1.00;;
18820;SDS011;9539;59.332;18.034;2022-07-12T10:44:43;1.23;;;0.90;;
18820;SDS011;9539;59.332;18.034;2022-07-12T10:47:15;1.20;;;0.90;;
18820;SDS011;9539;59.332;18.034;2022-07-12T10:49:46;2.65;;;1.25;;
18820;SDS011;9539;59.332;18.034;2022-07-12T10:52:17;1.33;;;1.00;;
18820;SDS011;9539;59.332;18.034;2022-07-12T10:57:45;1.13;;;0.90;;
18820;SDS011;9539;59.332;18.034;2022-07-12T11:00:16;0.90;;;0.90;;
18820;SDS011;9539;59.332;18.034;2022-07-12T11:02:43;0.90;;;0.90;;
18820;SDS011;9539;59.332;18.034;2022-07-12T11:05:13;1.30;;;0.90;;
18820;SDS011;9539;59.332;18.034;2022-07-12T11:07:39;1.25;;;1.00;;
18820;SDS011;9539;59.332;18.034;2022-07-12T11:10:11;3.33;;;0.98;;
18820;SDS011;9539;59.332;18.034;2022-07-12T11:12:41;2.60;;;1.27;;
18820;SDS011;9539;59.332;18.034;2022-07-12T11:15:08;1.23;;;1.10;;
18820;SDS011;9539;59.332;18.034;2022-07-12T11:17:35;3.75;;;1.70;;
18820;SDS011;9539;59.332;18.034;2022-07-12T11:20:10;3.00;;;1.10;;
18820;SDS011;9539;59.332;18.034;2022-07-12T11:22:38;1.00;;;1.00;;
18820;SDS011;9539;59.332;18.034;2022-07-12T11:25:06;1.02;;;0.95;;
18820;SDS011;9539;59.332;18.034;2022-07-12T11:27:37;2.50;;;0.90;;
18820;SDS011;9539;59.332;18.034;2022-07-12T11:30:09;2.15;;;0.90;;
18820;SDS011;9539;59.332;18.034;2022-07-12T11:32:39;1.55;;;0.90;;
18820;SDS011;9539;59.332;18.034;2022-07-12T11:35:20;1.02;;;1.02;;
18820;SDS011;9539;59.332;18.034;2022-07-12T11:37:51;2.33;;;1.08;;
18820;SDS011;9539;59.332;18.034;2022-07-12T11:40:22;1.08;;;0.90;;
18820;SDS011;9539;59.332;18.034;2022-07-12T11:42:53;1.10;;;0.98;;
18820;SDS011;9539;59.332;18.034;2022-07-12T11:45:26;4.20;;;1.02;;
18820;SDS011;9539;59.332;18.034;2022-07-12T11:47:53;1.88;;;0.90;;
18820;SDS011;9539;59.332;18.034;2022-07-12T11:50:19;1.10;;;0.90;;
18820;SDS011;9539;59.332;18.034;2022-07-12T11:52:46;2.13;;;1.10;;
18820;SDS011;9539;59.332;18.034;2022-07-12T11:55:13;1.85;;;1.10;;
18820;SDS011;9539;59.332;18.034;2022-07-12T11:57:41;1.13;;;0.90;;
18820;SDS011;9539;59.332;18.034;2022-07-12T12:00:14;1.20;;;1.10;;
18820;SDS011;9539;59.332;18.034;2022-07-12T12:02:48;1.88;;;1.10;;
18820;SDS011;9539;59.332;18.034;2022-07-12T12:05:18;2.33;;;1.48;;
18820;SDS011;9539;59.332;18.034;2022-07-12T12:07:45;4.35;;;1.20;;
18820;SDS011;9539;59.332;18.034;2022-07-12T12:10:12;1.40;;;1.10;;
18820;SDS011;9539;59.332;18.034;2022-07-12T12:12:42;0.90;;;0.85;;
18820;SDS011;9539;59.332;18.034;2022-07-12T12:15:13;1.50;;;1.10;;
18820;SDS011;9539;59.332;18.034;2022-07-12T12:17:43;0.93;;;0.93;;
18820;SDS011;9539;59.332;18.034;2022-07-12T12:20:15;1.02;;;1.02;;
18820;SDS011;9539;59.332;18.034;2022-07-12T12:22:43;1.10;;;1.00;;
18820;SDS011;9539;59.332;18.034;2022-07-12T12:25:14;1.90;;;1.27;;
18820;SDS011;9539;59.332;18.034;2022-07-12T12:27:42;1.10;;;1.00;;
18820;SDS011;9539;59.332;18.034;2022-07-12T12:30:10;0.90;;;0.90;;
18820;SDS011;9539;59.332;18.034;2022-07-12T12:32:48;1.98;;;0.98;;
18820;SDS011;9539;59.332;18.034;2022-07-12T12:35:31;2.65;;;1.38;;
18820;SDS011;9539;59.332;18.034;2022-07-12T12:38:01;2.75;;;1.20;;
18820;SDS011;9539;59.332;18.034;2022-07-12T12:40:32;3.05;;;1.10;;
18820;SDS011;9539;59.332;18.034;2022-07-12T12:43:09;2.00;;;1.02;;
18820;SDS011;9539;59.332;18.034;2022-07-12T12:45:48;1.25;;;0.90;;
18820;SDS011;9539;59.332;18.034;2022-07-12T12:48:17;2.38;;;1.10;;
18820;SDS011;9539;59.332;18.034;2022-07-12T12:50:46;3.10;;;1.10;;
18820;SDS011;9539;59.332;18.034;2022-07-12T12:53:18;1.42;;;1.30;;
18820;SDS011;9539;59.332;18.034;2022-07-12T12:55:46;1.92;;;1.60;;
18820;SDS011;9539;59.332;18.034;2022-07-12T12:58:15;2.65;;;1.10;;
18820;SDS011;9539;59.332;18.034;2022-07-12T13:00:44;1.20;;;1.10;;
18820;SDS011;9539;59.332;18.034;2022-07-12T13:03:12;2.00;;;1.50;;
18820;SDS011;9539;59.332;18.034;2022-07-12T13:05:43;1.17;;;1.00;;
18820;SDS011;9539;59.332;18.034;2022-07-12T13:08:14;4.72;;;0.90;;
18820;SDS011;9539;59.332;18.034;2022-07-12T13:10:42;0.90;;;0.90;;
18820;SDS011;9539;59.332;18.034;2022-07-12T13:13:10;1.15;;;1.00;;
18820;SDS011;9539;59.332;18.034;2022-07-12T13:15:38;1.40;;;1.17;;
18820;SDS011;9539;59.332;18.034;2022-07-12T13:18:05;1.92;;;1.10;;
18820;SDS011;9539;59.332;18.034;2022-07-12T13:20:32;1.50;;;1.25;;
18820;SDS011;9539;59.332;18.034;2022-07-12T13:22:59;2.88;;;1.20;;
18820;SDS011;9539;59.332;18.034;2022-07-12T13:25:36;2.25;;;1.50;;
18820;SDS011;9539;59.332;18.034;2022-07-12T13:28:06;1.40;;;1.10;;
18820;SDS011;9539;59.332;18.034;2022-07-12T13:30:35;1.10;;;1.10;;
18820;SDS011;9539;59.332;18.034;2022-07-12T13:33:02;1.30;;;1.10;;
18820;SDS011;9539;59.332;18.034;2022-07-12T13:35:31;1.10;;;1.00;;
18820;SDS011;9539;59.332;18.034;2022-07-12T13:37:58;1.90;;;1.00;;
18820;SDS011;9539;59.332;18.034;2022-07-12T13:40:24;1.80;;;1.00;;
18820;SDS011;9539;59.332;18.034;2022-07-12T13:42:53;1.42;;;1.00;;
18820;SDS011;9539;59.332;18.034;2022-07-12T13:45:20;1.70;;;1.10;;
18820;SDS011;9539;59.332;18.034;2022-07-12T13:47:48;2.35;;;1.80;;
18820;SDS011;9539;59.332;18.034;2022-07-12T13:50:17;2.05;;;1.00;;
18820;SDS011;9539;59.332;18.034;2022-07-12T13:52:45;2.33;;;1.08;;
18820;SDS011;9539;59.332;18.034;2022-07-12T13:55:16;0.90;;;0.90;;
18820;SDS011;9539;59.332;18.034;2022-07-12T13:57:44;1.67;;;1.02;;
18820;SDS011;9539;59.332;18.034;2022-07-12T14:00:14;1.77;;;0.90;;
18820;SDS011;9539;59.332;18.034;2022-07-12T14:02:42;1.45;;;1.02;;
18820;SDS011;9539;59.332;18.034;2022-07-12T14:05:11;1.80;;;1.30;;
18820;SDS011;9539;59.332;18.034;2022-07-12T14:07:39;2.53;;;1.70;;
18820;SDS011;9539;59.332;18.034;2022-07-12T14:10:07;8.85;;;2.75;;
18820;SDS011;9539;59.332;18.034;2022-07-12T14:12:34;1.20;;;1.10;;
18820;SDS011;9539;59.332;18.034;2022-07-12T14:15:02;1.25;;;1.15;;
18820;SDS011;9539;59.332;18.034;2022-07-12T14:17:46;2.03;;;1.00;;
18820;SDS011;9539;59.332;18.034;2022-07-12T14:20:15;3.03;;;1.15;;
18820;SDS011;9539;59.332;18.034;2022-07-12T14:22:44;1.10;;;1.00;;
18820;SDS011;9539;59.332;18.034;2022-07-12T14:25:11;1.10;;;1.00;;
18820;SDS011;9539;59.332;18.034;2022-07-12T14:27:38;1.70;;;1.10;;
18820;SDS011;9539;59.332;18.034;2022-07-12T14:30:07;1.00;;;1.00;;
18820;SDS011;9539;59.332;18.034;2022-07-12T14:32:35;1.15;;;1.05;;
18820;SDS011;9539;59.332;18.034;2022-07-12T14:35:05;1.20;;;0.90;;
18820;SDS011;9539;59.332;18.034;2022-07-12T14:37:32;0.95;;;0.95;;
18820;SDS011;9539;59.332;18.034;2022-07-12T14:39:59;2.15;;;1.20;;
18820;SDS011;9539;59.332;18.034;2022-07-12T14:42:26;1.05;;;0.93;;
18820;SDS011;9539;59.332;18.034;2022-07-12T14:44:52;1.25;;;1.00;;
18820;SDS011;9539;59.332;18.034;2022-07-12T14:47:19;3.88;;;1.00;;
18820;SDS011;9539;59.332;18.034;2022-07-12T14:49:47;1.95;;;1.27;;
18820;SDS011;9539;59.332;18.034;2022-07-12T14:52:15;3.47;;;1.40;;
18820;SDS011;9539;59.332;18.034;2022-07-12T14:54:42;1.38;;;1.10;;
18820;SDS011;9539;59.332;18.034;2022-07-12T14:57:09;1.55;;;1.27;;
18820;SDS011;9539;59.332;18.034;2022-07-12T14:59:36;2.00;;;1.20;;
18820;SDS011;9539;59.332;18.034;2022-07-12T15:02:03;0.98;;;0.98;;
18820;SDS011;9539;59.332;18.034;2022-07-12T15:04:30;1.38;;;1.27;;
18820;SDS011;9539;59.332;18.034;2022-07-12T15:06:56;2.85;;;1.50;;